createdAt,value
2023-01-08T00:01:41.008Z,99919.19
2023-01-08T00:04:10.729Z,99914.00
2023-01-08T00:06:40.018Z,99903.88
2023-01-08T00:09:09.456Z,99896.84
2023-01-08T00:11:37.846Z,99899.22
2023-01-08T00:14:06.070Z,99883.97
2023-01-08T00:16:34.061Z,99893.34
2023-01-08T00:19:02.190Z,99882.31
2023-01-08T00:21:30.252Z,99893.72
2023-01-08T00:24:01.084Z,99879.72
2023-01-08T00:26:30.208Z,99876.59
2023-01-08T00:28:58.431Z,99871.09
2023-01-08T00:31:28.128Z,99868.25
2023-01-08T00:33:56.195Z,99869.03
2023-01-08T00:36:27.062Z,99864.97
2023-01-08T00:38:55.152Z,99862.56
2023-01-08T00:41:28.745Z,99850.75
2023-01-08T00:44:03.952Z,99836.22
2023-01-08T00:46:31.997Z,99843.19
2023-01-08T00:49:02.018Z,99844.66
2023-01-08T00:51:32.709Z,99833.94
2023-01-08T00:54:01.141Z,99833.22
2023-01-08T00:56:32.016Z,99831.72
2023-01-08T00:59:01.367Z,99820.13
2023-01-08T01:01:29.834Z,99828.06
2023-01-08T01:03:58.055Z,99818.50
2023-01-08T01:06:26.134Z,99821.03
2023-01-08T01:08:54.357Z,99819.53
2023-01-08T01:11:25.406Z,99832.06
2023-01-08T01:13:55.720Z,99838.66
2023-01-08T01:16:24.231Z,99837.91
2023-01-08T01:18:53.578Z,99831.28
2023-01-08T01:21:24.015Z,99837.41
2023-01-08T01:23:54.495Z,99828.78
2023-01-08T01:26:23.340Z,99828.06
2023-01-08T01:28:53.228Z,99820.13
2023-01-08T01:31:23.318Z,99829.91
2023-01-08T01:33:53.488Z,99835.66
2023-01-08T01:36:24.091Z,99846.22
2023-01-08T01:38:54.483Z,99854.66
2023-01-08T01:41:26.903Z,99854.66
2023-01-08T01:43:55.400Z,99866.47
2023-01-08T01:46:28.134Z,99867.19
2023-01-08T01:48:57.645Z,99866.47
2023-01-08T01:51:31.613Z,99860.38
2023-01-08T01:54:00.344Z,99859.84
2023-01-08T01:56:29.385Z,99849.53
2023-01-08T01:58:57.439Z,99851.22
2023-01-08T02:01:27.673Z,99845.13
2023-01-08T02:03:56.368Z,99852.50
2023-01-08T02:06:29.408Z,99851.44
2023-01-08T02:09:02.445Z,99841.47
2023-01-08T02:11:36.674Z,99832.09
2023-01-08T02:14:08.883Z,99823.06
2023-01-08T02:16:43.579Z,99829.00
2023-01-08T02:19:17.543Z,99816.63
2023-01-08T02:21:55.134Z,99819.06
2023-01-08T02:24:28.111Z,99820.91
2023-01-08T02:27:03.571Z,99819.41
2023-01-08T02:29:35.578Z,99816.66
2023-01-08T02:32:04.603Z,99816.47
2023-01-08T02:34:34.480Z,99815.38
2023-01-08T02:37:03.009Z,99814.47
2023-01-08T02:39:37.179Z,99808.19
2023-01-08T02:42:12.486Z,99811.13
2023-01-08T02:44:48.623Z,99804.84
2023-01-08T02:47:20.846Z,99811.31
2023-01-08T02:49:52.965Z,99801.56
2023-01-08T02:52:21.731Z,99798.75
2023-01-08T02:54:51.399Z,99801.88
2023-01-08T02:57:22.530Z,99796.56
2023-01-08T02:59:51.624Z,99793.25
2023-01-08T03:02:20.565Z,99794.75
2023-01-08T03:04:53.407Z,99784.06
2023-01-08T03:07:22.848Z,99782.22
2023-01-08T03:09:51.023Z,99777.63
2023-01-08T03:12:21.755Z,99773.94
2023-01-08T03:14:55.465Z,99769.88
2023-01-08T03:17:25.667Z,99764.91
2023-01-08T03:19:58.066Z,99770.09
2023-01-08T03:22:28.826Z,99756.47
2023-01-08T03:25:00.216Z,99757.03
2023-01-08T03:27:31.789Z,99760.53
2023-01-08T03:30:02.883Z,99745.97
2023-01-08T03:32:37.067Z,99714.88
2023-01-08T03:35:07.439Z,99714.50
2023-01-08T03:37:43.445Z,99723.31
2023-01-08T03:40:14.625Z,99721.50
2023-01-08T03:42:43.132Z,99718.72
2023-01-08T03:45:14.275Z,99720.41
2023-01-08T03:47:43.256Z,99718.53
2023-01-08T03:50:13.738Z,99723.72
2023-01-08T03:52:41.828Z,99724.44
2023-01-08T03:55:18.678Z,99732.91
2023-01-08T03:57:46.732Z,99718.38
2023-01-08T04:00:20.693Z,99713.94
2023-01-08T04:02:48.519Z,99703.81
2023-01-08T04:05:18.917Z,99701.22
2023-01-08T04:07:48.997Z,99705.06
2023-01-08T04:10:17.408Z,99701.59
2023-01-08T04:12:45.455Z,99691.66
2023-01-08T04:15:21.259Z,99692.50
2023-01-08T04:17:49.435Z,99692.53
2023-01-08T04:20:18.954Z,99693.84
2023-01-08T04:22:48.263Z,99692.94
2023-01-08T04:25:19.254Z,99691.09
2023-01-08T04:27:47.425Z,99687.41
2023-01-08T04:30:15.741Z,99686.47
2023-01-08T04:32:45.180Z,99687.03
2023-01-08T04:35:13.460Z,99686.47
2023-01-08T04:37:58.266Z,99694.59
2023-01-08T04:40:26.242Z,99692.78
2023-01-08T04:42:55.999Z,99694.41
2023-01-08T04:45:25.754Z,99687.78
2023-01-08T04:47:57.843Z,99698.13
2023-01-08T04:50:26.552Z,99704.91
2023-01-08T04:52:54.515Z,99699.06
2023-01-08T04:55:23.927Z,99692.25
2023-01-08T04:57:51.957Z,99686.53
2023-01-08T05:00:20.103Z,99699.59
2023-01-08T05:02:49.811Z,99701.81
2023-01-08T05:05:19.330Z,99701.47
2023-01-08T05:07:49.527Z,99691.34
2023-01-08T05:10:19.024Z,99690.06
2023-01-08T05:12:47.048Z,99690.06
2023-01-08T05:15:15.158Z,99689.91
2023-01-08T05:17:45.290Z,99697.06
2023-01-08T05:20:13.315Z,99694.66
2023-01-08T05:22:43.307Z,99689.72
2023-01-08T05:25:12.325Z,99696.16
2023-01-08T05:27:40.672Z,99702.97
2023-01-08T05:30:11.953Z,99707.03
2023-01-08T05:32:40.049Z,99712.38
2023-01-08T05:35:10.926Z,99710.16
2023-01-08T05:37:39.259Z,99700.94
2023-01-08T05:40:09.548Z,99698.59
2023-01-08T05:42:39.537Z,99698.78
2023-01-08T05:45:08.493Z,99700.25
2023-01-08T05:47:38.256Z,99698.22
2023-01-08T05:50:08.297Z,99695.44
2023-01-08T05:52:38.331Z,99691.78
2023-01-08T05:55:09.228Z,99694.00
2023-01-08T05:57:37.258Z,99699.53
2023-01-08T06:00:06.054Z,99696.59
2023-01-08T06:02:40.550Z,99699.88
2023-01-08T06:05:11.442Z,99698.78
2023-01-08T06:07:40.488Z,99700.06
2023-01-08T06:10:14.330Z,99698.59
2023-01-08T06:12:43.109Z,99698.41
2023-01-08T06:15:12.650Z,99698.59
2023-01-08T06:17:41.262Z,99688.28
2023-01-08T06:20:10.062Z,99684.97
2023-01-08T06:22:38.648Z,99672.13
2023-01-08T06:25:07.039Z,99666.41
2023-01-08T06:27:38.770Z,99673.22
2023-01-08T06:30:08.903Z,99672.84
2023-01-08T06:32:37.100Z,99673.38
2023-01-08T06:35:05.899Z,99666.72
2023-01-08T06:37:33.997Z,99670.28
2023-01-08T06:40:02.932Z,99673.94
2023-01-08T06:42:30.850Z,99675.94
2023-01-08T06:45:00.426Z,99686.97
2023-01-08T06:47:28.894Z,99683.31
2023-01-08T06:49:58.585Z,99680.19
2023-01-08T06:52:27.255Z,99682.22
2023-01-08T06:54:55.523Z,99689.19
2023-01-08T06:57:24.184Z,99695.44
2023-01-08T06:59:52.267Z,99704.09
2023-01-08T07:02:25.793Z,99697.28
2023-01-08T07:04:54.037Z,99701.13
2023-01-08T07:07:24.059Z,99701.72
2023-01-08T07:09:52.514Z,99699.50
2023-01-08T07:12:20.731Z,99710.53
2023-01-08T07:14:48.878Z,99704.28
2023-01-08T07:17:19.198Z,99694.34
2023-01-08T07:19:48.607Z,99700.94
2023-01-08T07:22:16.827Z,99708.31
2023-01-08T07:24:46.786Z,99715.66
2023-01-08T07:27:14.922Z,99716.03
2023-01-08T07:29:43.326Z,99714.91
2023-01-08T07:32:11.408Z,99712.72
2023-01-08T07:34:39.723Z,99717.88
2023-01-08T07:37:13.501Z,99711.97
2023-01-08T07:39:41.474Z,99710.50
2023-01-08T07:42:09.864Z,99707.56
2023-01-08T07:44:39.033Z,99707.94
2023-01-08T07:47:07.007Z,99718.63
2023-01-08T07:49:34.994Z,99718.97
2023-01-08T07:52:03.429Z,99714.91
2023-01-08T07:54:33.181Z,99716.41
2023-01-08T07:57:02.555Z,99723.41
2023-01-08T07:59:30.730Z,99726.91
2023-01-08T08:02:02.097Z,99732.22
2023-01-08T08:04:31.761Z,99721.56
2023-01-08T08:07:02.798Z,99726.91
2023-01-08T08:09:30.825Z,99722.84
2023-01-08T08:12:00.509Z,99730.41
2023-01-08T08:14:29.279Z,99719.75
2023-01-08T08:16:58.888Z,99725.25
2023-01-08T08:19:30.308Z,99724.53
2023-01-08T08:22:02.972Z,99719.34
2023-01-08T08:24:31.479Z,99714.56
2023-01-08T08:27:02.227Z,99706.66
2023-01-08T08:29:32.396Z,99708.50
2023-01-08T08:32:00.756Z,99715.84
2023-01-08T08:34:29.673Z,99706.63
2023-01-08T08:36:57.818Z,99700.94
2023-01-08T08:39:26.449Z,99712.38
2023-01-08T08:41:57.360Z,99702.97
2023-01-08T08:44:26.926Z,99701.69
2023-01-08T08:46:55.511Z,99699.47
2023-01-08T08:49:23.424Z,99699.47
2023-01-08T08:51:52.990Z,99702.78
2023-01-08T08:54:21.775Z,99706.81
2023-01-08T08:56:50.031Z,99702.00
2023-01-08T08:59:18.243Z,99701.06
2023-01-08T09:01:49.053Z,99699.09
2023-01-08T09:04:17.461Z,99701.09
2023-01-08T09:06:45.924Z,99707.19
2023-01-08T09:09:15.487Z,99696.88
2023-01-08T09:11:44.938Z,99690.97
2023-01-08T09:14:13.263Z,99694.47
2023-01-08T09:16:41.484Z,99688.38
2023-01-08T09:19:12.136Z,99694.81
2023-01-08T09:21:40.357Z,99688.00
2023-01-08T09:24:10.340Z,99695.38
2023-01-08T09:26:38.383Z,99707.88
2023-01-08T09:29:08.445Z,99701.06
2023-01-08T09:31:41.876Z,99703.06
2023-01-08T09:34:09.865Z,99705.97
2023-01-08T09:36:39.543Z,99703.41
2023-01-08T09:39:09.576Z,99698.25
2023-01-08T09:41:42.243Z,99697.47
2023-01-08T09:44:14.038Z,99695.75
2023-01-08T09:46:52.240Z,99697.94
2023-01-08T09:49:25.121Z,99699.22
2023-01-08T09:51:54.882Z,99702.50
2023-01-08T09:54:28.454Z,99691.09
2023-01-08T09:56:59.076Z,99691.78
2023-01-08T09:59:27.549Z,99693.41
2023-01-08T10:01:57.378Z,99685.34
2023-01-08T10:04:29.104Z,99682.03
2023-01-08T10:07:02.058Z,99679.28
2023-01-08T10:09:31.804Z,99689.94
2023-01-08T10:12:02.477Z,99688.66
2023-01-08T10:14:32.084Z,99685.19
2023-01-08T10:17:02.723Z,99685.75
2023-01-08T10:19:30.740Z,99687.75
2023-01-08T10:22:01.076Z,99687.75
2023-01-08T10:24:32.843Z,99689.25
2023-01-08T10:27:07.906Z,99687.22
2023-01-08T10:29:35.785Z,99692.50
2023-01-08T10:32:09.940Z,99683.31
2023-01-08T10:34:43.053Z,99673.56
2023-01-08T10:37:17.422Z,99671.16
2023-01-08T10:39:49.113Z,99664.09
2023-01-08T10:42:18.970Z,99670.69
2023-01-08T10:44:53.435Z,99662.63
2023-01-08T10:47:24.158Z,99660.53
2023-01-08T10:49:52.514Z,99655.84
2023-01-08T10:52:26.651Z,99648.84
2023-01-08T10:54:59.766Z,99657.63
2023-01-08T10:57:29.102Z,99650.25
2023-01-08T10:59:57.786Z,99650.13
2023-01-08T11:02:32.197Z,99627.59
2023-01-08T11:05:00.837Z,99623.63
2023-01-08T11:07:30.972Z,99619.13
2023-01-08T11:09:59.789Z,99614.34
2023-01-08T11:12:32.506Z,99617.03
2023-01-08T11:15:01.246Z,99612.47
2023-01-08T11:17:29.621Z,99607.97
2023-01-08T11:20:07.793Z,99607.75
2023-01-08T11:22:37.042Z,99611.00
2023-01-08T11:25:14.089Z,99606.94
2023-01-08T11:27:45.692Z,99603.28
2023-01-08T11:30:14.785Z,99596.34
2023-01-08T11:32:48.503Z,99585.81
2023-01-08T11:35:21.255Z,99580.03
2023-01-08T11:37:54.586Z,99570.75
2023-01-08T11:40:30.033Z,99545.19
2023-01-08T11:43:11.535Z,99558.72
2023-01-08T11:45:47.093Z,99556.50
2023-01-08T11:48:34.790Z,99544.19
2023-01-08T11:51:18.119Z,99540.75
2023-01-08T11:53:52.055Z,99547.44
2023-01-08T11:56:23.511Z,99540.94
2023-01-08T11:58:59.439Z,99538.16
2023-01-08T12:01:36.332Z,99537.28
2023-01-08T12:04:15.683Z,99526.31
2023-01-08T12:06:49.086Z,99521.94
2023-01-08T12:09:23.015Z,99517.84
2023-01-08T12:11:53.313Z,99521.44
2023-01-08T12:14:33.855Z,99521.88
2023-01-08T12:17:08.079Z,99510.31
2023-01-08T12:19:45.721Z,99503.13
2023-01-08T12:22:28.224Z,99496.50
2023-01-08T12:25:15.844Z,99490.16
2023-01-08T12:27:57.463Z,99494.94
2023-01-08T12:30:28.477Z,99496.19
2023-01-08T12:32:59.946Z,99487.88
2023-01-08T12:35:32.466Z,99486.72
2023-01-08T12:38:05.589Z,99474.81
2023-01-08T12:40:35.750Z,99472.31
2023-01-08T12:43:38.941Z,99477.09
2023-01-08T12:46:08.870Z,99471.84
2023-01-08T12:48:37.884Z,99473.31
2023-01-08T12:51:13.708Z,99461.88
2023-01-08T12:53:55.198Z,99467.34
2023-01-08T12:56:37.125Z,99462.97
2023-01-08T12:59:20.024Z,99459.19
2023-01-08T13:01:52.287Z,99450.47
2023-01-08T13:04:21.412Z,99458.78
2023-01-08T13:07:02.001Z,99455.84
2023-01-08T13:09:32.459Z,99457.19
2023-01-08T13:12:04.850Z,99448.72
2023-01-08T13:14:43.050Z,99449.22
2023-01-08T13:17:19.131Z,99451.97
2023-01-08T13:19:56.185Z,99454.59
2023-01-08T13:22:29.913Z,99452.09
2023-01-08T13:25:30.491Z,99451.56
2023-01-08T13:28:01.619Z,99448.56
2023-01-08T13:30:51.557Z,99437.19
2023-01-08T13:33:31.949Z,99435.00
2023-01-08T13:36:21.292Z,99420.72
2023-01-08T13:39:07.343Z,99419.38
2023-01-08T13:41:39.319Z,99425.25
2023-01-08T13:44:18.718Z,99407.06
2023-01-08T13:46:57.933Z,99407.66
2023-01-08T13:49:32.488Z,99403.88
2023-01-08T13:52:00.771Z,99398.38
2023-01-08T13:54:39.623Z,99400.41
2023-01-08T13:57:16.110Z,99411.09
2023-01-08T13:59:50.664Z,99400.13
2023-01-08T14:02:50.108Z,99403.22
2023-01-08T14:05:28.308Z,99405.84
2023-01-08T14:07:58.008Z,99402.63
2023-01-08T14:10:27.684Z,99404.63
2023-01-08T14:13:07.215Z,99406.22
2023-01-08T14:15:39.496Z,99390.16
2023-01-08T14:18:13.749Z,99389.13
2023-01-08T14:20:50.143Z,99384.22
2023-01-08T14:23:22.743Z,99386.44
2023-01-08T14:25:52.003Z,99384.97
2023-01-08T14:28:22.386Z,99384.13
2023-01-08T14:30:51.731Z,99380.00
2023-01-08T14:33:25.216Z,99377.50
2023-01-08T14:35:55.186Z,99378.84
2023-01-08T14:38:23.364Z,99379.53
2023-01-08T14:41:02.320Z,99381.75
2023-01-08T14:43:41.120Z,99377.34
2023-01-08T14:46:20.149Z,99366.69
2023-01-08T14:48:54.716Z,99362.75
2023-01-08T14:51:26.885Z,99362.19
2023-01-08T14:53:58.917Z,99364.09
2023-01-08T14:56:33.017Z,99365.97
2023-01-08T14:59:01.837Z,99366.41
2023-01-08T15:01:34.244Z,99363.53
2023-01-08T15:04:17.281Z,99362.50
2023-01-08T15:06:46.396Z,99360.03
2023-01-08T15:09:23.374Z,99362.13
2023-01-08T15:11:55.398Z,99360.97
2023-01-08T15:14:25.577Z,99351.81
2023-01-08T15:16:59.471Z,99347.56
2023-01-08T15:19:31.598Z,99350.28
2023-01-08T15:22:03.400Z,99344.44
2023-01-08T15:24:34.318Z,99341.81
2023-01-08T15:27:10.201Z,99342.09
2023-01-08T15:29:41.022Z,99336.97
2023-01-08T15:32:41.029Z,99340.75
2023-01-08T15:35:22.034Z,99328.38
2023-01-08T15:37:50.825Z,99333.16
2023-01-08T15:40:19.643Z,99333.16
2023-01-08T15:43:06.178Z,99330.81
2023-01-08T15:45:34.812Z,99332.00
2023-01-08T15:48:06.233Z,99329.63
2023-01-08T15:50:47.869Z,99319.00
2023-01-08T15:53:22.456Z,99321.03
2023-01-08T15:55:51.711Z,99311.97
2023-01-08T15:58:20.314Z,99304.13
2023-01-08T16:00:49.800Z,99307.59
2023-01-08T16:03:18.617Z,99304.53
2023-01-08T16:05:50.980Z,99302.50
2023-01-08T16:08:22.067Z,99290.28
2023-01-08T16:10:53.443Z,99280.41
2023-01-08T16:13:24.221Z,99280.53
2023-01-08T16:15:53.832Z,99283.03
2023-01-08T16:18:22.058Z,99274.00
2023-01-08T16:21:00.186Z,99277.84
2023-01-08T16:23:28.940Z,99274.69
2023-01-08T16:26:00.680Z,99274.69
2023-01-08T16:28:29.095Z,99270.72
2023-01-08T16:31:00.149Z,99273.78
2023-01-08T16:33:28.220Z,99274.38
2023-01-08T16:35:58.904Z,99272.75
2023-01-08T16:38:29.500Z,99277.56
2023-01-08T16:40:58.656Z,99272.03
2023-01-08T16:43:28.808Z,99276.69
2023-01-08T16:46:03.010Z,99275.03
2023-01-08T16:48:31.385Z,99264.03
2023-01-08T16:51:06.162Z,99259.81
2023-01-08T16:53:35.775Z,99267.22
2023-01-08T16:56:05.375Z,99266.50
2023-01-08T16:58:35.053Z,99268.06
2023-01-08T17:01:08.546Z,99259.19
2023-01-08T17:03:37.498Z,99258.31
2023-01-08T17:06:08.657Z,99264.41
2023-01-08T17:08:40.248Z,99256.13
2023-01-08T17:11:11.646Z,99246.38
2023-01-08T17:13:45.769Z,99239.34
2023-01-08T17:16:19.610Z,99236.75
2023-01-08T17:18:48.926Z,99232.38
2023-01-08T17:21:20.713Z,99227.84
2023-01-08T17:23:52.980Z,99219.56
2023-01-08T17:26:21.407Z,99216.78
2023-01-08T17:28:50.032Z,99216.78
2023-01-08T17:31:22.885Z,99213.44
2023-01-08T17:33:52.091Z,99216.31
2023-01-08T17:36:24.076Z,99202.75
2023-01-08T17:38:56.010Z,99197.78
2023-01-08T17:41:42.506Z,99186.69
2023-01-08T17:44:14.751Z,99188.50
2023-01-08T17:46:46.200Z,99185.84
2023-01-08T17:49:18.643Z,99172.66
2023-01-08T17:51:53.987Z,99167.47
2023-01-08T17:54:25.041Z,99161.72
2023-01-08T17:56:54.396Z,99152.97
2023-01-08T17:59:23.827Z,99150.78
2023-01-08T18:02:08.163Z,99153.53
2023-01-08T18:04:37.647Z,99145.34
2023-01-08T18:07:13.168Z,99148.63
2023-01-08T18:09:46.761Z,99156.56
2023-01-08T18:12:17.690Z,99156.66
2023-01-08T18:14:46.778Z,99163.06
2023-01-08T18:17:23.194Z,99159.41
2023-01-08T18:19:51.547Z,99157.22
2023-01-08T18:22:27.435Z,99162.09
2023-01-08T18:24:57.552Z,99151.94
2023-01-08T18:27:27.330Z,99157.03
2023-01-08T18:29:58.692Z,99163.72
2023-01-08T18:32:30.273Z,99152.03
2023-01-08T18:35:06.579Z,99139.53
2023-01-08T18:37:36.956Z,99134.03
2023-01-08T18:40:07.540Z,99137.81
2023-01-08T18:43:02.000Z,99133.50
2023-01-08T18:45:35.437Z,99142.19
2023-01-08T18:48:08.957Z,99131.38
2023-01-08T18:50:40.346Z,99130.66
2023-01-08T18:53:13.966Z,99126.28
2023-01-08T18:55:43.195Z,99124.41
2023-01-08T18:58:13.564Z,99108.13
2023-01-08T19:00:41.664Z,99101.72
2023-01-08T19:03:12.393Z,99098.63
2023-01-08T19:05:44.397Z,99091.06
2023-01-08T19:08:14.288Z,99083.75
2023-01-08T19:10:43.450Z,99092.44
2023-01-08T19:13:12.067Z,99085.97
2023-01-08T19:15:40.457Z,99090.25
2023-01-08T19:18:10.739Z,99085.41
2023-01-08T19:20:41.435Z,99082.72
2023-01-08T19:23:09.725Z,99084.50
2023-01-08T19:25:44.078Z,99079.97
2023-01-08T19:28:14.149Z,99072.00
2023-01-08T19:30:42.864Z,99068.09
2023-01-08T19:33:13.838Z,99066.97
2023-01-08T19:35:42.572Z,99051.16
2023-01-08T19:38:10.976Z,99049.84
2023-01-08T19:40:40.826Z,99044.88
2023-01-08T19:43:28.850Z,99037.19
2023-01-08T19:45:57.473Z,99032.81
2023-01-08T19:48:25.843Z,99025.25
2023-01-08T19:50:54.521Z,99015.50
2023-01-08T19:53:23.719Z,99008.53
2023-01-08T19:55:53.831Z,99007.09
2023-01-08T19:58:25.013Z,99001.88
2023-01-08T20:00:53.565Z,98997.56
2023-01-08T20:03:24.677Z,98993.81
2023-01-08T20:05:53.618Z,98980.16
2023-01-08T20:08:23.350Z,98976.53
2023-01-08T20:10:53.154Z,98985.25
2023-01-08T20:13:21.378Z,98982.22
2023-01-08T20:15:56.485Z,98973.31
2023-01-08T20:18:25.011Z,98986.41
2023-01-08T20:20:53.075Z,98975.94
2023-01-08T20:23:21.896Z,98975.69
2023-01-08T20:25:50.239Z,98967.69
2023-01-08T20:28:43.338Z,98965.09
2023-01-08T20:31:13.668Z,98958.28
2023-01-08T20:33:43.617Z,98958.13
2023-01-08T20:36:14.849Z,98945.03
2023-01-08T20:38:45.057Z,98944.47
2023-01-08T20:41:13.619Z,98942.00
2023-01-08T20:43:52.452Z,98943.59
2023-01-08T20:46:28.279Z,98944.63
2023-01-08T20:48:57.700Z,98942.00
2023-01-08T20:51:25.631Z,98937.97
2023-01-08T20:53:54.189Z,98942.16
2023-01-08T20:56:22.796Z,98934.59
2023-01-08T20:58:52.297Z,98925.59
2023-01-08T21:01:21.588Z,98922.84
2023-01-08T21:03:50.584Z,98919.34
2023-01-08T21:06:21.770Z,98913.81
2023-01-08T21:08:53.873Z,98915.88
2023-01-08T21:11:23.520Z,98910.47
2023-01-08T21:13:53.026Z,98905.09
2023-01-08T21:16:23.381Z,98897.69
2023-01-08T21:18:52.108Z,98891.88
2023-01-08T21:21:24.060Z,98890.84
2023-01-08T21:23:52.236Z,98891.25
2023-01-08T21:26:20.768Z,98895.34
2023-01-08T21:28:50.842Z,98886.47
2023-01-08T21:31:22.058Z,98875.28
2023-01-08T21:33:51.607Z,98876.44
2023-01-08T21:36:21.003Z,98871.34
2023-01-08T21:38:52.846Z,98864.22
2023-01-08T21:41:39.694Z,98868.59
2023-01-08T21:44:30.778Z,98858.13
2023-01-08T21:47:02.861Z,98850.28
2023-01-08T21:49:31.849Z,98840.41
2023-01-08T21:52:17.598Z,98825.28
2023-01-08T21:54:46.974Z,98830.50
2023-01-08T21:57:17.775Z,98816.69
2023-01-08T21:59:46.008Z,98815.97
2023-01-08T22:02:17.421Z,98822.66
2023-01-08T22:04:45.983Z,98820.63
2023-01-08T22:07:14.968Z,98818.72
2023-01-08T22:09:43.274Z,98814.09
2023-01-08T22:12:11.823Z,98810.00
2023-01-08T22:14:39.984Z,98806.38
2023-01-08T22:17:10.833Z,98796.03
2023-01-08T22:19:51.447Z,98796.63
2023-01-08T22:22:21.837Z,98789.50
2023-01-08T22:24:53.410Z,98776.69
2023-01-08T22:27:21.953Z,98777.13
2023-01-08T22:29:50.204Z,98780.50
2023-01-08T22:32:18.473Z,98776.41
2023-01-08T22:34:48.219Z,98766.41
2023-01-08T22:37:18.991Z,98775.25
2023-01-08T22:39:47.649Z,98770.91
2023-01-08T22:42:17.794Z,98778.16
2023-01-08T22:44:45.786Z,98770.31
2023-01-08T22:47:14.175Z,98770.31
2023-01-08T22:49:42.909Z,98774.09
2023-01-08T22:52:13.022Z,98769.25
2023-01-08T22:54:42.908Z,98766.50
2023-01-08T22:57:11.221Z,98765.38
2023-01-08T22:59:39.753Z,98764.75
2023-01-08T23:02:07.974Z,98763.31
2023-01-08T23:04:36.305Z,98754.00
2023-01-08T23:07:05.242Z,98759.13
2023-01-08T23:09:37.189Z,98756.94
2023-01-08T23:12:05.262Z,98757.66
2023-01-08T23:14:33.213Z,98753.88
2023-01-08T23:17:01.298Z,98754.88
2023-01-08T23:19:29.756Z,98748.06
2023-01-08T23:22:00.474Z,98743.13
2023-01-08T23:24:30.694Z,98755.91
2023-01-08T23:27:00.110Z,98747.78
2023-01-08T23:29:29.899Z,98750.97
2023-01-08T23:31:58.534Z,98746.91
2023-01-08T23:34:27.055Z,98749.97
2023-01-08T23:36:55.255Z,98750.84
2023-01-08T23:39:26.503Z,98746.75
2023-01-08T23:41:56.167Z,98746.75
2023-01-08T23:44:25.625Z,98745.44
2023-01-08T23:46:54.041Z,98745.19
2023-01-08T23:49:22.913Z,98749.97
2023-01-08T23:51:55.204Z,98751.72
2023-01-08T23:54:25.971Z,98746.06
2023-01-08T23:56:54.803Z,98751.56
2023-01-08T23:59:22.855Z,98752.44
